createdAt,value
2023-03-15T00:01:38.071Z,4.60
2023-03-15T00:03:58.754Z,5.25
2023-03-15T00:06:19.104Z,4.32
2023-03-15T00:08:39.479Z,4.32
2023-03-15T00:11:00.254Z,5.57
2023-03-15T00:13:20.305Z,5.13
2023-03-15T00:15:47.956Z,6.13
2023-03-15T00:18:08.081Z,5.25
2023-03-15T00:20:28.178Z,5.57
2023-03-15T00:22:48.317Z,3.92
2023-03-15T00:25:08.540Z,5.45
2023-03-15T00:27:28.884Z,6.32
2023-03-15T00:29:49.140Z,4.90
2023-03-15T00:32:09.347Z,5.07
2023-03-15T00:34:29.579Z,4.35
2023-03-15T00:36:49.767Z,4.63
2023-03-15T00:39:09.970Z,4.63
2023-03-15T00:41:31.193Z,5.45
2023-03-15T00:43:51.861Z,4.18
2023-03-15T00:46:12.991Z,5.28
2023-03-15T00:48:34.750Z,5.75
2023-03-15T00:51:02.128Z,7.53
2023-03-15T00:53:22.325Z,7.22
2023-03-15T00:55:42.609Z,7.53
2023-03-15T00:58:02.616Z,7.72
2023-03-15T01:00:24.147Z,7.85
2023-03-15T01:02:44.747Z,7.95
2023-03-15T01:05:06.231Z,7.40
2023-03-15T01:07:26.176Z,7.95
2023-03-15T01:09:48.509Z,10.52
2023-03-15T01:12:08.775Z,9.48
2023-03-15T01:14:28.888Z,6.75
2023-03-15T01:16:49.114Z,7.75
2023-03-15T01:19:09.388Z,7.22
2023-03-15T01:21:29.590Z,7.78
2023-03-15T01:23:50.048Z,7.40
2023-03-15T01:26:11.898Z,11.65
2023-03-15T01:28:32.125Z,7.07
2023-03-15T01:30:52.979Z,6.97
2023-03-15T01:33:13.465Z,6.90
2023-03-15T01:35:33.778Z,7.13
2023-03-15T01:37:53.917Z,7.18
2023-03-15T01:40:14.346Z,8.43
2023-03-15T01:42:34.175Z,7.20
2023-03-15T01:44:55.966Z,7.63
2023-03-15T01:47:16.096Z,7.25
2023-03-15T01:49:36.235Z,6.50
2023-03-15T01:52:08.897Z,7.40
2023-03-15T01:54:31.131Z,7.13
2023-03-15T01:57:02.169Z,6.90
2023-03-15T01:59:26.025Z,7.30
2023-03-15T02:01:46.865Z,8.40
2023-03-15T02:04:08.885Z,7.63
2023-03-15T02:06:29.146Z,8.60
2023-03-15T02:08:53.945Z,8.10
2023-03-15T02:11:15.864Z,8.48
2023-03-15T02:13:36.074Z,6.85
2023-03-15T02:15:56.871Z,7.45
2023-03-15T02:18:17.250Z,7.38
2023-03-15T02:20:46.714Z,7.88
2023-03-15T02:23:11.657Z,7.53
2023-03-15T02:25:38.010Z,6.65
2023-03-15T02:27:58.457Z,7.43
2023-03-15T02:30:18.719Z,7.60
2023-03-15T02:32:39.519Z,6.45
2023-03-15T02:34:59.832Z,7.03
2023-03-15T02:37:20.820Z,6.35
2023-03-15T02:39:41.177Z,6.13
2023-03-15T02:42:01.654Z,7.93
2023-03-15T02:44:30.676Z,6.65
2023-03-15T02:46:52.611Z,7.07
2023-03-15T02:49:13.446Z,7.32
2023-03-15T02:51:34.143Z,6.13
2023-03-15T02:53:54.270Z,5.28
2023-03-15T02:56:14.885Z,5.50
2023-03-15T02:58:35.133Z,5.45
2023-03-15T03:00:55.238Z,5.88
2023-03-15T03:03:15.401Z,6.47
2023-03-15T03:05:35.441Z,6.13
2023-03-15T03:07:55.644Z,6.43
2023-03-15T03:10:16.539Z,6.00
2023-03-15T03:12:36.780Z,6.25
2023-03-15T03:14:56.992Z,6.75
2023-03-15T03:17:17.104Z,5.88
2023-03-15T03:19:37.293Z,6.40
2023-03-15T03:21:57.432Z,7.28
2023-03-15T03:24:17.504Z,6.63
2023-03-15T03:26:37.759Z,5.63
2023-03-15T03:28:57.960Z,7.00
2023-03-15T03:31:20.324Z,6.57
2023-03-15T03:33:40.671Z,7.60
2023-03-15T03:36:03.659Z,7.70
2023-03-15T03:40:45.819Z,7.72
2023-03-15T03:43:06.073Z,6.18
2023-03-15T03:45:25.955Z,6.72
2023-03-15T03:47:46.096Z,6.78
2023-03-15T03:50:06.361Z,8.30
2023-03-15T03:52:26.550Z,7.82
2023-03-15T03:54:46.452Z,7.57
2023-03-15T03:57:06.861Z,7.53
2023-03-15T03:59:26.903Z,6.60
2023-03-15T04:01:47.731Z,7.00
2023-03-15T04:04:07.912Z,7.20
2023-03-15T04:06:27.862Z,5.82
2023-03-15T04:08:48.115Z,5.35
2023-03-15T04:11:08.472Z,5.30
2023-03-15T04:13:28.563Z,5.82
2023-03-15T04:15:48.972Z,5.68
2023-03-15T04:18:09.486Z,5.88
2023-03-15T04:20:33.798Z,5.40
2023-03-15T04:22:54.707Z,5.30
2023-03-15T04:25:14.896Z,6.13
2023-03-15T04:27:34.794Z,5.85
2023-03-15T04:29:54.940Z,5.40
2023-03-15T04:32:17.438Z,4.82
2023-03-15T04:34:40.755Z,4.40
2023-03-15T04:39:21.813Z,3.65
2023-03-15T04:41:42.179Z,3.83
2023-03-15T04:44:05.734Z,3.63
2023-03-15T04:46:26.255Z,4.22
2023-03-15T04:48:46.561Z,2.92
2023-03-15T04:51:06.780Z,3.30
2023-03-15T04:53:26.927Z,2.75
2023-03-15T04:55:46.988Z,3.20
2023-03-15T04:58:06.851Z,3.35
2023-03-15T05:00:27.088Z,3.35
2023-03-15T05:02:54.004Z,3.13
2023-03-15T05:05:14.356Z,2.97
2023-03-15T05:07:35.186Z,2.92
2023-03-15T05:09:55.337Z,2.38
2023-03-15T05:12:15.679Z,2.78
2023-03-15T05:14:35.739Z,2.40
2023-03-15T05:16:57.843Z,2.22
2023-03-15T05:19:18.237Z,2.25
2023-03-15T05:21:38.721Z,2.50
2023-03-15T05:23:58.706Z,1.73
2023-03-15T05:26:19.018Z,1.77
2023-03-15T05:28:39.325Z,2.15
2023-03-15T05:31:01.843Z,2.63
2023-03-15T05:33:22.114Z,1.85
2023-03-15T05:35:43.845Z,2.30
2023-03-15T05:38:03.996Z,2.95
2023-03-15T05:40:24.188Z,3.60
2023-03-15T05:42:44.465Z,2.78
2023-03-15T05:45:04.854Z,2.35
2023-03-15T05:47:24.911Z,1.50
2023-03-15T05:49:45.535Z,1.60
2023-03-15T05:52:06.258Z,1.48
2023-03-15T05:54:26.455Z,1.67
2023-03-15T05:56:46.570Z,1.63
2023-03-15T05:59:06.903Z,1.92
2023-03-15T06:01:27.043Z,1.65
2023-03-15T06:03:47.373Z,2.45
2023-03-15T06:06:07.444Z,1.80
2023-03-15T06:08:27.611Z,2.10
2023-03-15T06:10:47.830Z,1.60
2023-03-15T06:13:07.871Z,1.52
2023-03-15T06:15:27.915Z,1.60
2023-03-15T06:17:48.095Z,1.50
2023-03-15T06:20:08.493Z,1.70
2023-03-15T06:22:28.380Z,1.55
2023-03-15T06:24:48.625Z,1.58
2023-03-15T06:27:08.585Z,1.80
2023-03-15T06:29:28.722Z,1.70
2023-03-15T06:31:48.916Z,2.10
2023-03-15T06:34:09.370Z,1.63
2023-03-15T06:36:31.097Z,2.15
2023-03-15T06:38:53.838Z,1.70
2023-03-15T06:41:14.911Z,1.60
2023-03-15T06:43:35.204Z,1.63
2023-03-15T06:45:56.198Z,2.20
2023-03-15T06:48:17.048Z,2.00
2023-03-15T06:50:46.486Z,1.65
2023-03-15T06:53:07.688Z,1.75
2023-03-15T06:55:27.618Z,2.00
2023-03-15T06:57:47.916Z,2.20
2023-03-15T07:00:10.643Z,1.73
2023-03-15T07:02:36.210Z,1.50
2023-03-15T07:04:56.094Z,1.90
2023-03-15T07:07:16.601Z,1.50
2023-03-15T07:09:36.958Z,1.77
2023-03-15T07:11:57.198Z,1.60
2023-03-15T07:14:17.408Z,1.88
2023-03-15T07:16:37.504Z,1.45
2023-03-15T07:18:59.329Z,1.83
2023-03-15T07:21:19.287Z,1.58
2023-03-15T07:23:39.418Z,1.60
2023-03-15T07:26:00.120Z,1.60
2023-03-15T07:28:20.692Z,2.30
2023-03-15T07:30:40.888Z,1.77
2023-03-15T07:33:01.080Z,1.85
2023-03-15T07:35:21.127Z,1.75
2023-03-15T07:37:44.624Z,1.65
2023-03-15T07:40:09.178Z,2.00
2023-03-15T07:42:29.637Z,1.70
2023-03-15T07:44:50.050Z,1.45
2023-03-15T07:47:10.696Z,1.70
2023-03-15T07:49:31.181Z,1.80
2023-03-15T07:51:51.977Z,1.77
2023-03-15T07:54:12.388Z,1.95
2023-03-15T07:56:32.761Z,2.00
2023-03-15T07:58:52.855Z,2.00
2023-03-15T08:01:13.037Z,1.92
2023-03-15T08:03:33.461Z,1.52
2023-03-15T08:05:53.481Z,1.80
2023-03-15T08:08:13.367Z,2.13
2023-03-15T08:10:33.575Z,2.97
2023-03-15T08:12:53.590Z,1.40
2023-03-15T08:15:14.332Z,1.30
2023-03-15T08:17:34.641Z,1.85
2023-03-15T08:19:54.694Z,1.70
2023-03-15T08:22:15.702Z,1.73
2023-03-15T08:24:36.105Z,1.83
2023-03-15T08:26:55.931Z,1.48
2023-03-15T08:29:16.194Z,1.23
2023-03-15T08:31:36.304Z,1.20
2023-03-15T08:33:56.610Z,1.30
2023-03-15T08:36:17.110Z,1.60
2023-03-15T08:38:37.364Z,1.50
2023-03-15T08:40:57.937Z,1.20
2023-03-15T08:43:18.343Z,1.33
2023-03-15T08:45:56.627Z,1.17
2023-03-15T08:48:18.749Z,1.30
2023-03-15T08:50:38.812Z,1.20
2023-03-15T08:52:59.655Z,1.38
2023-03-15T08:55:19.678Z,1.20
2023-03-15T08:57:40.374Z,1.17
2023-03-15T09:00:01.151Z,1.00
2023-03-15T09:02:22.821Z,7.00
2023-03-15T09:04:43.321Z,2.03
2023-03-15T09:07:03.354Z,1.48
2023-03-15T09:09:23.584Z,12.68
2023-03-15T09:11:43.713Z,1.95
2023-03-15T09:14:03.683Z,1.30
2023-03-15T09:16:24.174Z,1.50
2023-03-15T09:18:44.790Z,1.40
2023-03-15T09:21:05.425Z,1.50
2023-03-15T09:23:25.290Z,1.10
2023-03-15T09:25:45.472Z,1.30
2023-03-15T09:28:06.958Z,1.30
2023-03-15T09:30:28.393Z,1.20
2023-03-15T09:32:48.430Z,1.75
2023-03-15T09:35:10.758Z,1.10
2023-03-15T09:37:31.168Z,1.73
2023-03-15T09:39:51.237Z,1.20
2023-03-15T09:42:16.853Z,1.33
2023-03-15T09:44:48.214Z,1.95
2023-03-15T09:47:14.350Z,1.30
2023-03-15T09:49:41.029Z,1.20
2023-03-15T09:52:24.403Z,1.10
2023-03-15T09:54:52.509Z,1.20
2023-03-15T09:57:20.894Z,1.40
2023-03-15T09:59:44.026Z,1.20
2023-03-15T10:02:13.955Z,1.20
2023-03-15T10:04:39.796Z,1.27
2023-03-15T10:07:02.181Z,1.20
2023-03-15T10:09:23.941Z,1.65
2023-03-15T10:11:50.274Z,1.70
2023-03-15T10:14:33.767Z,1.10
2023-03-15T10:16:54.006Z,1.55
2023-03-15T10:19:14.517Z,1.17
2023-03-15T10:21:39.015Z,1.30
2023-03-15T10:23:59.595Z,1.60
2023-03-15T10:26:22.943Z,1.83
2023-03-15T10:28:43.712Z,1.30
2023-03-15T10:31:16.267Z,1.60
2023-03-15T10:33:39.127Z,1.70
2023-03-15T10:36:10.678Z,1.58
2023-03-15T10:38:31.638Z,2.73
2023-03-15T10:40:53.292Z,1.90
2023-03-15T10:43:19.541Z,1.30
2023-03-15T10:45:40.082Z,1.33
2023-03-15T10:48:01.196Z,1.27
2023-03-15T10:50:30.312Z,1.73
2023-03-15T10:52:51.568Z,1.88
2023-03-15T10:55:21.206Z,1.48
2023-03-15T10:57:50.813Z,1.40
2023-03-15T11:00:30.330Z,1.40
2023-03-15T11:02:52.236Z,1.40
2023-03-15T11:05:12.577Z,1.40
2023-03-15T11:07:35.248Z,1.30
2023-03-15T11:09:59.591Z,1.27
2023-03-15T11:12:24.147Z,1.48
2023-03-15T11:14:46.444Z,1.10
2023-03-15T11:17:08.161Z,1.75
2023-03-15T11:19:30.720Z,1.50
2023-03-15T11:21:51.559Z,1.90
2023-03-15T11:24:20.004Z,1.30
2023-03-15T11:26:41.862Z,1.20
2023-03-15T11:29:07.757Z,1.40
2023-03-15T11:31:28.219Z,1.10
2023-03-15T11:33:56.553Z,1.20
2023-03-15T11:36:22.182Z,1.30
2023-03-15T11:38:43.476Z,1.50
2023-03-15T11:41:22.713Z,1.00
2023-03-15T11:43:46.042Z,1.20
2023-03-15T11:46:09.700Z,1.20
2023-03-15T11:48:50.825Z,1.10
2023-03-15T11:51:12.399Z,1.65
2023-03-15T11:53:41.660Z,1.55
2023-03-15T11:56:20.911Z,1.10
2023-03-15T11:58:41.949Z,1.42
2023-03-15T12:01:03.834Z,1.20
2023-03-15T12:03:34.520Z,1.20
2023-03-15T12:06:01.103Z,1.35
2023-03-15T12:08:21.050Z,1.10
2023-03-15T12:10:46.106Z,1.17
2023-03-15T12:13:07.560Z,1.10
2023-03-15T12:15:27.556Z,1.15
2023-03-15T12:17:51.975Z,1.10
2023-03-15T12:20:12.226Z,1.52
2023-03-15T12:22:33.761Z,1.30
2023-03-15T12:24:54.063Z,1.00
2023-03-15T12:27:19.659Z,1.10
2023-03-15T12:29:40.540Z,1.10
2023-03-15T12:32:03.725Z,1.10
2023-03-15T12:34:26.342Z,1.13
2023-03-15T12:36:47.899Z,1.10
2023-03-15T12:39:14.344Z,1.38
2023-03-15T12:41:45.934Z,1.20
2023-03-15T12:44:24.770Z,1.55
2023-03-15T12:46:45.096Z,1.13
2023-03-15T12:49:06.544Z,1.10
2023-03-15T12:51:41.986Z,1.20
2023-03-15T12:54:02.690Z,1.17
2023-03-15T12:56:41.099Z,1.20
2023-03-15T12:59:05.722Z,1.10
2023-03-15T13:01:26.227Z,1.50
2023-03-15T13:03:46.401Z,1.13
2023-03-15T13:06:13.320Z,1.20
2023-03-15T13:08:46.052Z,1.23
2023-03-15T13:11:25.331Z,1.10
2023-03-15T13:13:55.695Z,1.15
2023-03-15T13:16:21.478Z,1.00
2023-03-15T13:18:45.235Z,1.52
2023-03-15T13:21:15.722Z,1.13
2023-03-15T13:23:35.708Z,1.10
2023-03-15T13:26:14.696Z,1.20
2023-03-15T13:28:39.649Z,1.20
2023-03-15T13:30:59.966Z,1.90
2023-03-15T13:33:25.787Z,1.35
2023-03-15T13:35:56.513Z,1.10
2023-03-15T13:38:25.698Z,1.48
2023-03-15T13:40:46.662Z,1.10
2023-03-15T13:43:09.649Z,1.20
2023-03-15T13:45:30.617Z,1.10
2023-03-15T13:47:50.666Z,1.10
2023-03-15T13:50:16.382Z,1.10
2023-03-15T13:52:36.865Z,1.30
2023-03-15T13:54:57.542Z,1.20
2023-03-15T13:57:22.246Z,1.60
2023-03-15T13:59:45.964Z,1.20
2023-03-15T14:02:06.471Z,1.50
2023-03-15T14:04:26.985Z,1.20
2023-03-15T14:06:47.820Z,1.40
2023-03-15T14:09:17.482Z,1.35
2023-03-15T14:11:39.918Z,1.42
2023-03-15T14:14:04.641Z,1.27
2023-03-15T14:17:01.069Z,1.30
2023-03-15T14:19:30.803Z,1.10
2023-03-15T14:22:05.190Z,1.20
2023-03-15T14:24:25.764Z,1.10
2023-03-15T14:26:50.492Z,1.27
2023-03-15T14:29:18.380Z,1.20
2023-03-15T14:31:40.681Z,1.20
2023-03-15T14:34:09.074Z,1.23
2023-03-15T14:36:31.040Z,1.30
2023-03-15T14:38:53.288Z,1.20
2023-03-15T14:41:25.005Z,1.20
2023-03-15T14:43:45.333Z,1.20
2023-03-15T14:46:07.350Z,1.05
2023-03-15T14:48:29.097Z,1.75
2023-03-15T14:50:49.407Z,1.40
2023-03-15T14:53:13.038Z,1.40
2023-03-15T14:55:34.499Z,1.40
2023-03-15T14:57:54.910Z,1.30
2023-03-15T15:00:16.612Z,1.20
2023-03-15T15:02:37.218Z,1.30
2023-03-15T15:04:57.624Z,1.30
2023-03-15T15:07:19.832Z,1.13
2023-03-15T15:09:44.747Z,1.40
2023-03-15T15:12:04.841Z,1.20
2023-03-15T15:14:25.220Z,1.20
2023-03-15T15:16:45.828Z,1.20
2023-03-15T15:19:06.088Z,1.65
2023-03-15T15:21:28.221Z,1.30
2023-03-15T15:23:58.093Z,1.23
2023-03-15T15:26:21.455Z,1.30
2023-03-15T15:28:41.645Z,1.70
2023-03-15T15:31:01.854Z,1.63
2023-03-15T15:33:22.495Z,1.30
2023-03-15T15:35:42.696Z,1.30
2023-03-15T15:38:02.887Z,2.28
2023-03-15T15:40:26.889Z,1.90
2023-03-15T15:42:47.483Z,1.70
2023-03-15T15:45:10.593Z,1.20
2023-03-15T15:47:30.440Z,1.40
2023-03-15T15:49:50.571Z,1.50
2023-03-15T15:52:14.237Z,1.33
2023-03-15T15:54:35.415Z,2.10
2023-03-15T15:56:59.106Z,1.20
2023-03-15T15:59:19.776Z,1.40
2023-03-15T16:01:56.530Z,1.50
2023-03-15T16:04:20.398Z,1.40
2023-03-15T16:06:40.788Z,1.30
2023-03-15T16:09:00.878Z,1.38
2023-03-15T16:11:21.403Z,1.20
2023-03-15T16:13:42.215Z,1.20
2023-03-15T16:16:02.475Z,1.40
2023-03-15T16:18:22.684Z,1.50
2023-03-15T16:20:42.917Z,2.15
2023-03-15T16:23:03.264Z,2.58
2023-03-15T16:25:26.349Z,1.20
2023-03-15T16:27:47.231Z,1.35
2023-03-15T16:30:08.688Z,1.80
2023-03-15T16:32:43.548Z,1.50
2023-03-15T16:35:06.786Z,2.35
2023-03-15T16:37:29.630Z,2.45
2023-03-15T16:39:50.264Z,2.05
2023-03-15T16:42:12.505Z,2.60
2023-03-15T16:44:32.735Z,1.60
2023-03-15T16:46:53.270Z,2.00
2023-03-15T16:49:15.440Z,1.40
2023-03-15T16:51:36.719Z,1.33
2023-03-15T16:54:08.579Z,2.05
2023-03-15T16:56:36.199Z,1.45
2023-03-15T16:58:56.377Z,1.70
2023-03-15T17:01:16.713Z,1.80
2023-03-15T17:03:36.719Z,2.28
2023-03-15T17:05:57.217Z,2.70
2023-03-15T17:08:18.918Z,2.90
2023-03-15T17:10:40.375Z,3.20
2023-03-15T17:13:01.676Z,3.38
2023-03-15T17:15:25.670Z,2.75
2023-03-15T17:17:45.982Z,3.17
2023-03-15T17:20:11.667Z,3.00
2023-03-15T17:22:31.600Z,3.92
2023-03-15T17:24:51.698Z,3.90
2023-03-15T17:27:32.066Z,3.70
2023-03-15T17:29:52.171Z,2.78
2023-03-15T17:32:12.537Z,2.40
2023-03-15T17:34:33.196Z,2.70
2023-03-15T17:36:53.192Z,3.40
2023-03-15T17:39:15.233Z,4.45
2023-03-15T17:41:36.525Z,2.90
2023-03-15T17:43:56.816Z,2.55
2023-03-15T17:46:21.746Z,3.13
2023-03-15T17:48:42.245Z,3.78
2023-03-15T17:51:02.470Z,12.57
2023-03-15T17:53:22.793Z,11.63
2023-03-15T17:55:43.049Z,8.60
2023-03-15T17:58:04.025Z,7.55
2023-03-15T18:00:24.856Z,8.35
2023-03-15T18:02:49.800Z,10.43
2023-03-15T18:05:19.353Z,8.73
2023-03-15T18:07:43.517Z,11.13
2023-03-15T18:10:06.544Z,9.43
2023-03-15T18:12:27.000Z,7.07
2023-03-15T18:14:47.262Z,8.13
2023-03-15T18:17:07.569Z,8.25
2023-03-15T18:19:27.877Z,6.03
2023-03-15T18:21:48.029Z,6.88
2023-03-15T18:24:11.901Z,7.93
2023-03-15T18:26:32.000Z,8.25
2023-03-15T18:28:52.462Z,8.50
2023-03-15T18:31:13.862Z,14.30
2023-03-15T18:33:33.994Z,15.38
2023-03-15T18:35:54.303Z,15.43
2023-03-15T18:38:15.595Z,7.25
2023-03-15T18:40:36.100Z,7.22
2023-03-15T18:42:57.268Z,6.43
2023-03-15T18:45:19.505Z,4.95
2023-03-15T18:47:39.482Z,5.68
2023-03-15T18:50:09.649Z,5.57
2023-03-15T18:52:30.946Z,7.13
2023-03-15T18:54:53.765Z,7.70
2023-03-15T18:59:33.920Z,7.43
2023-03-15T19:01:54.430Z,6.25
2023-03-15T19:04:14.493Z,5.60
2023-03-15T19:06:34.703Z,7.63
2023-03-15T19:08:55.152Z,6.38
2023-03-15T19:11:15.762Z,12.75
2023-03-15T19:13:36.263Z,11.27
2023-03-15T19:15:56.262Z,16.58
2023-03-15T19:18:16.541Z,12.82
2023-03-15T19:20:36.547Z,12.93
2023-03-15T19:22:56.830Z,9.27
2023-03-15T19:25:16.983Z,6.90
2023-03-15T19:27:37.475Z,5.93
2023-03-15T19:29:57.395Z,7.68
2023-03-15T19:32:17.575Z,12.25
2023-03-15T19:34:37.582Z,12.32
2023-03-15T19:36:58.156Z,12.48
2023-03-15T19:39:18.679Z,14.60
2023-03-15T19:41:40.525Z,13.95
2023-03-15T19:44:00.765Z,11.80
2023-03-15T19:46:21.069Z,12.88
2023-03-15T19:48:41.847Z,13.00
2023-03-15T19:51:02.617Z,14.52
2023-03-15T19:53:22.655Z,16.63
2023-03-15T19:55:42.789Z,21.05
2023-03-15T19:58:03.148Z,20.05
2023-03-15T20:00:24.450Z,21.95
2023-03-15T20:02:45.098Z,19.40
2023-03-15T20:05:05.480Z,18.85
2023-03-15T20:07:25.868Z,12.48
2023-03-15T20:09:46.002Z,12.80
2023-03-15T20:12:06.714Z,12.13
2023-03-15T20:14:26.881Z,13.35
2023-03-15T20:16:47.319Z,9.77
2023-03-15T20:19:07.373Z,11.98
2023-03-15T20:21:28.676Z,12.98
2023-03-15T20:23:49.069Z,16.90
2023-03-15T20:26:10.611Z,13.68
2023-03-15T20:28:30.861Z,15.35
2023-03-15T20:30:51.025Z,15.40
2023-03-15T20:33:11.256Z,13.73
2023-03-15T20:35:31.923Z,15.52
2023-03-15T20:37:52.925Z,15.57
2023-03-15T20:40:14.106Z,13.18
2023-03-15T20:42:34.817Z,13.38
2023-03-15T20:44:55.470Z,13.15
2023-03-15T20:47:15.709Z,14.18
2023-03-15T20:49:35.981Z,18.55
2023-03-15T20:51:56.138Z,23.38
2023-03-15T20:54:16.007Z,22.00
2023-03-15T20:56:36.145Z,18.55
2023-03-15T20:58:56.279Z,14.02
2023-03-15T21:01:16.596Z,11.93
2023-03-15T21:03:37.274Z,10.02
2023-03-15T21:05:57.499Z,9.57
2023-03-15T21:08:17.653Z,11.50
2023-03-15T21:10:38.202Z,19.25
2023-03-15T21:12:58.378Z,21.02
2023-03-15T21:15:18.403Z,24.70
2023-03-15T21:17:38.793Z,30.88
2023-03-15T21:20:00.108Z,23.42
2023-03-15T21:22:20.756Z,25.60
2023-03-15T21:24:54.799Z,29.35
2023-03-15T21:27:18.177Z,22.85
2023-03-15T21:29:39.542Z,23.47
2023-03-15T21:31:59.926Z,12.98
2023-03-15T21:34:20.936Z,18.45
2023-03-15T21:36:42.725Z,13.90
2023-03-15T21:39:03.554Z,12.70
2023-03-15T21:41:24.312Z,15.30
2023-03-15T21:43:45.439Z,12.40
2023-03-15T21:46:07.723Z,15.70
2023-03-15T21:48:28.301Z,12.73
2023-03-15T21:50:53.053Z,18.77
2023-03-15T21:53:13.258Z,18.65
2023-03-15T21:55:34.050Z,17.63
2023-03-15T21:57:54.378Z,13.98
2023-03-15T22:00:19.450Z,14.55
2023-03-15T22:02:39.568Z,11.35
2023-03-15T22:04:59.707Z,12.05
2023-03-15T22:07:19.869Z,11.55
2023-03-15T22:09:41.189Z,12.48
2023-03-15T22:12:01.349Z,14.13
2023-03-15T22:14:21.909Z,17.05
2023-03-15T22:16:42.208Z,15.68
2023-03-15T22:19:03.311Z,19.70
2023-03-15T22:21:23.276Z,17.95
2023-03-15T22:23:44.436Z,16.73
2023-03-15T22:26:05.239Z,16.88
2023-03-15T22:28:25.583Z,17.10
2023-03-15T22:30:49.603Z,17.13
2023-03-15T22:33:11.148Z,15.93
2023-03-15T22:35:31.119Z,15.23
2023-03-15T22:37:56.174Z,15.13
2023-03-15T22:40:16.401Z,13.90
2023-03-15T22:42:36.751Z,11.90
2023-03-15T22:44:56.890Z,11.18
2023-03-15T22:47:16.936Z,10.65
2023-03-15T22:49:37.249Z,12.88
2023-03-15T22:51:57.601Z,12.82
2023-03-15T22:54:17.578Z,10.90
2023-03-15T22:56:40.589Z,12.13
2023-03-15T22:59:01.296Z,12.40
2023-03-15T23:01:21.911Z,11.77
2023-03-15T23:03:41.962Z,10.98
2023-03-15T23:06:02.087Z,13.60
2023-03-15T23:08:22.433Z,11.85
2023-03-15T23:10:42.458Z,12.13
2023-03-15T23:13:02.720Z,12.73
2023-03-15T23:15:22.606Z,13.15
2023-03-15T23:17:46.172Z,15.27
2023-03-15T23:20:06.733Z,14.65
2023-03-15T23:22:27.026Z,11.68
2023-03-15T23:24:47.117Z,12.25
2023-03-15T23:27:07.249Z,12.88
2023-03-15T23:29:29.375Z,12.85
2023-03-15T23:31:49.619Z,11.13
2023-03-15T23:34:10.871Z,11.48
2023-03-15T23:36:30.893Z,12.75
2023-03-15T23:38:52.669Z,11.75
2023-03-15T23:41:12.964Z,11.45
2023-03-15T23:43:33.242Z,11.60
2023-03-15T23:45:57.092Z,10.52
2023-03-15T23:48:17.598Z,11.68
2023-03-15T23:50:38.503Z,13.32
2023-03-15T23:52:59.005Z,12.60
2023-03-15T23:55:19.877Z,13.55
2023-03-15T23:57:40.704Z,14.18
